Time;durP1;ratioP1;P1;durP2;ratioP2;P2;SDS_P1;SDS_P2;PMS_P1;PMS_P2;Temp;Humidity;BMP_temperature;BMP_pressure;BME280_temperature;BME280_humidity;BME280_pressure;Samples;Min_cycle;Max_cycle;Signal;HPM_P1;HPM_P2
2022/01/23 00:02:07;;;;;;;0.10;0.10;;;;;;;;;;5060932;28;20032;-61
2022/01/23 00:04:33;;;;;;;0.10;0.10;;;;;;;;;;5043349;28;20054;-59
2022/01/23 00:07:02;;;;;;;0.10;0.10;;;;;;;;;;5039096;28;20032;-60
2022/01/23 00:09:28;;;;;;;0.10;0.10;;;;;;;;;;5055795;28;20036;-60
2022/01/23 00:11:55;;;;;;;0.10;0.10;;;;;;;;;;5073607;28;20089;-59
2022/01/23 00:19:42;;;;;;;0.20;0.20;;;;;;;;;;5055389;28;20040;-61
2022/01/23 00:22:09;;;;;;;0.73;0.70;;;;;;;;;;5092822;28;20046;-60
2022/01/23 00:33:05;;;;;;;0.20;0.20;;;;;;;;;;5012336;28;20487;-59
2022/01/23 00:35:31;;;;;;;0.30;0.30;;;;;;;;;;5060214;28;20267;-60
2022/01/23 00:37:59;;;;;;;0.10;0.10;;;;;;;;;;5054712;28;20131;-60
2022/01/23 00:40:26;;;;;;;0.10;0.10;;;;;;;;;;5038879;28;20067;-60
2022/01/23 00:42:54;;;;;;;0.10;0.10;;;;;;;;;;5073308;28;20029;-62
2022/01/23 00:45:29;;;;;;;0.10;0.10;;;;;;;;;;5038504;28;20036;-61
2022/01/23 00:47:59;;;;;;;0.10;0.10;;;;;;;;;;5038401;28;20032;-61
2022/01/23 00:50:25;;;;;;;0.10;0.10;;;;;;;;;;5038192;28;20043;-61
2022/01/23 00:52:50;;;;;;;0.10;0.10;;;;;;;;;;5038167;28;20024;-61
2022/01/23 00:55:16;;;;;;;0.10;0.10;;;;;;;;;;5072628;28;20036;-62
2022/01/23 00:57:42;;;;;;;0.10;0.10;;;;;;;;;;5072866;28;20040;-60
2022/01/23 01:00:08;;;;;;;0.10;0.10;;;;;;;;;;5072663;28;20086;-60
2022/01/23 01:02:33;;;;;;;0.10;0.10;;;;;;;;;;5038187;28;20033;-59
2022/01/23 01:04:59;;;;;;;0.10;0.10;;;;;;;;;;5054440;28;20468;-60
2022/01/23 01:07:24;;;;;;;0.20;0.20;;;;;;;;;;5054340;28;20476;-60
2022/01/23 01:09:52;;;;;;;0.10;0.10;;;;;;;;;;5054535;28;20095;-60
2022/01/23 01:12:26;;;;;;;0.10;0.10;;;;;;;;;;5054961;28;20170;-62
2022/01/23 01:17:34;;;;;;;0.10;0.10;;;;;;;;;;5054406;28;20033;-61
2022/01/23 01:38:42;;;;;;;0.10;0.10;;;;;;;;;;5054020;28;20043;-61
2022/01/23 01:41:08;;;;;;;0.10;0.10;;;;;;;;;;5037488;28;20037;-60
2022/01/23 01:43:34;;;;;;;0.10;0.10;;;;;;;;;;5054180;28;20044;-60
2022/01/23 01:45:59;;;;;;;0.10;0.10;;;;;;;;;;5055662;28;20036;-61
2022/01/23 01:48:38;;;;;;;0.10;0.10;;;;;;;;;;5058029;28;20078;-60
2022/01/23 01:51:13;;;;;;;0.10;0.10;;;;;;;;;;5041473;28;20043;-60
2022/01/23 01:53:39;;;;;;;0.10;0.10;;;;;;;;;;5041096;28;20032;-60
2022/01/23 01:56:06;;;;;;;0.10;0.10;;;;;;;;;;5057540;28;20533;-60
2022/01/23 02:09:40;;;;;;;0.10;0.10;;;;;;;;;;5075438;28;20040;-59
2022/01/23 02:55:14;;;;;;;0.10;0.10;;;;;;;;;;5074545;28;20040;-60
2022/01/23 02:57:53;;;;;;;0.10;0.10;;;;;;;;;;5040083;28;20036;-60
2022/01/23 03:00:27;;;;;;;0.17;0.17;;;;;;;;;;5040870;28;20044;-61
2022/01/23 03:03:05;;;;;;;0.10;0.10;;;;;;;;;;5057663;28;20059;-60
2022/01/23 03:11:26;;;;;;;0.10;0.10;;;;;;;;;;5056226;28;20043;-60
2022/01/23 03:14:00;;;;;;;0.10;0.10;;;;;;;;;;5056465;28;20037;-61
2022/01/23 03:32:27;;;;;;;0.10;0.10;;;;;;;;;;5056199;28;20177;-60
2022/01/23 03:34:53;;;;;;;0.10;0.10;;;;;;;;;;5039509;28;20035;-61
2022/01/23 03:37:18;;;;;;;0.20;0.20;;;;;;;;;;5056127;28;20461;-60
2022/01/23 03:39:44;;;;;;;0.10;0.10;;;;;;;;;;5055904;28;20039;-60
2022/01/23 03:42:09;;;;;;;0.10;0.10;;;;;;;;;;5039250;28;20032;-59
2022/01/23 03:44:40;;;;;;;0.10;0.10;;;;;;;;;;5056144;28;20115;-61
2022/01/23 03:47:35;;;;;;;0.10;0.10;;;;;;;;;;5039273;28;20037;-60
2022/01/23 03:50:01;;;;;;;0.10;0.10;;;;;;;;;;5039282;28;20136;-61
2022/01/23 03:52:35;;;;;;;0.10;0.10;;;;;;;;;;5056138;28;20032;-61
2022/01/23 03:55:04;;;;;;;0.10;0.10;;;;;;;;;;5055775;28;20561;-61
2022/01/23 03:57:32;;;;;;;0.10;0.10;;;;;;;;;;5039625;28;20391;-60
2022/01/23 03:59:58;;;;;;;0.10;0.10;;;;;;;;;;5055658;28;20384;-60
2022/01/23 04:02:24;;;;;;;0.10;0.10;;;;;;;;;;5055578;28;20029;-61
2022/01/23 04:04:50;;;;;;;0.10;0.10;;;;;;;;;;5055564;28;20083;-60
2022/01/23 04:07:24;;;;;;;0.10;0.10;;;;;;;;;;5055400;28;20425;-61
2022/01/23 04:09:50;;;;;;;0.20;0.20;;;;;;;;;;5038640;28;20037;-60
2022/01/23 04:12:44;;;;;;;0.10;0.10;;;;;;;;;;5055575;28;20032;-61
2022/01/23 04:15:27;;;;;;;0.10;0.10;;;;;;;;;;5055396;28;20039;-61
2022/01/23 05:01:27;;;;;;;0.22;0.22;;;;;;;;;;5054636;28;20140;-61
2022/01/23 05:07:09;;;;;;;0.13;0.13;;;;;;;;;;5072320;28;20036;-60
2022/01/23 05:09:53;;;;;;;0.10;0.10;;;;;;;;;;5057586;28;20548;-60
2022/01/23 05:12:27;;;;;;;0.10;0.10;;;;;;;;;;5054807;28;20032;-60
2022/01/23 05:14:53;;;;;;;0.10;0.10;;;;;;;;;;5054470;28;20119;-60
2022/01/23 05:17:19;;;;;;;0.10;0.10;;;;;;;;;;5072496;28;20453;-60
2022/01/23 05:19:45;;;;;;;0.15;0.15;;;;;;;;;;5071674;28;20033;-60
2022/01/23 05:24:41;;;;;;;0.10;0.10;;;;;;;;;;5072267;28;20052;-60
2022/01/23 05:27:08;;;;;;;0.15;0.15;;;;;;;;;;5054474;28;20062;-60
2022/01/23 05:29:34;;;;;;;0.10;0.10;;;;;;;;;;5072329;28;20036;-60
2022/01/23 05:31:59;;;;;;;0.10;0.10;;;;;;;;;;5037806;28;20029;-61
2022/01/23 05:34:26;;;;;;;0.10;0.10;;;;;;;;;;5054315;28;20036;-59
2022/01/23 05:36:56;;;;;;;0.10;0.10;;;;;;;;;;5054078;28;20123;-60
2022/01/23 05:39:25;;;;;;;0.10;0.10;;;;;;;;;;5037555;28;20037;-59
2022/01/23 05:41:57;;;;;;;0.88;0.85;;;;;;;;;;5037907;28;20029;-59
2022/01/23 05:44:23;;;;;;;0.10;0.10;;;;;;;;;;5037914;28;20078;-60
2022/01/23 05:46:52;;;;;;;0.10;0.10;;;;;;;;;;5054158;28;20052;-60
2022/01/23 05:49:22;;;;;;;0.10;0.10;;;;;;;;;;5037910;28;20070;-60
2022/01/23 05:52:19;;;;;;;0.10;0.10;;;;;;;;;;5015348;28;20048;-60
2022/01/23 05:55:04;;;;;;;0.10;0.10;;;;;;;;;;5071781;28;20043;-60
2022/01/23 05:57:56;;;;;;;0.10;0.10;;;;;;;;;;5054039;28;20036;-60
2022/01/23 06:00:32;;;;;;;0.10;0.10;;;;;;;;;;5053912;28;20071;-60
2022/01/23 06:03:03;;;;;;;0.10;0.10;;;;;;;;;;5054268;28;20041;-60
2022/01/23 06:05:37;;;;;;;0.10;0.10;;;;;;;;;;5054086;28;20082;-61
2022/01/23 06:08:05;;;;;;;0.10;0.10;;;;;;;;;;5054043;28;20040;-61
2022/01/23 06:10:46;;;;;;;0.17;0.17;;;;;;;;;;5053918;28;20039;-60
2022/01/23 06:13:12;;;;;;;0.10;0.10;;;;;;;;;;5054010;28;20033;-60
2022/01/23 06:15:37;;;;;;;0.10;0.10;;;;;;;;;;5053828;28;20043;-60
2022/01/23 06:18:03;;;;;;;0.10;0.10;;;;;;;;;;5053742;28;20036;-60
2022/01/23 06:20:47;;;;;;;0.10;0.10;;;;;;;;;;5071836;28;20075;-60
2022/01/23 06:23:31;;;;;;;0.10;0.10;;;;;;;;;;5071875;28;20137;-60
2022/01/23 06:26:17;;;;;;;0.10;0.10;;;;;;;;;;5042820;28;20044;-61
2022/01/23 06:28:50;;;;;;;0.10;0.10;;;;;;;;;;5065281;28;20621;-61
2022/01/23 06:31:16;;;;;;;0.10;0.10;;;;;;;;;;5037380;28;20107;-59
2022/01/23 06:33:42;;;;;;;0.10;0.10;;;;;;;;;;5040395;28;20161;-60
2022/01/23 06:36:07;;;;;;;0.40;0.40;;;;;;;;;;5074976;28;20083;-60
2022/01/23 06:38:35;;;;;;;0.10;0.10;;;;;;;;;;5056975;28;20614;-60
2022/01/23 06:41:02;;;;;;;0.10;0.10;;;;;;;;;;5040709;28;20041;-59
2022/01/23 06:43:45;;;;;;;0.10;0.10;;;;;;;;;;5074934;28;20086;-62
2022/01/23 06:46:27;;;;;;;0.10;0.10;;;;;;;;;;5042537;28;20032;-60
2022/01/23 06:48:53;;;;;;;0.10;0.10;;;;;;;;;;5043409;28;20533;-61
2022/01/23 06:51:18;;;;;;;0.10;0.10;;;;;;;;;;5060176;28;20056;-60
2022/01/23 06:53:45;;;;;;;0.17;0.17;;;;;;;;;;5071277;28;20528;-62
2022/01/23 06:56:11;;;;;;;0.20;0.20;;;;;;;;;;5085719;28;20040;-61
2022/01/23 06:58:37;;;;;;;0.10;0.10;;;;;;;;;;5076827;28;20093;-59
2022/01/23 07:01:07;;;;;;;0.10;0.10;;;;;;;;;;5073992;28;20056;-61
2022/01/23 07:03:55;;;;;;;0.10;0.10;;;;;;;;;;5088902;28;20040;-61
2022/01/23 07:06:39;;;;;;;0.10;0.10;;;;;;;;;;5095180;28;20075;-61
2022/01/23 07:09:25;;;;;;;0.10;0.10;;;;;;;;;;5084192;28;20047;-61
2022/01/23 07:12:09;;;;;;;0.10;0.10;;;;;;;;;;5094944;28;20533;-61
2022/01/23 07:14:53;;;;;;;0.10;0.10;;;;;;;;;;5069509;28;20062;-61
2022/01/23 07:17:40;;;;;;;0.10;0.10;;;;;;;;;;5059746;28;20102;-60
2022/01/23 07:20:19;;;;;;;0.10;0.10;;;;;;;;;;5056727;28;20119;-61
2022/01/23 07:22:45;;;;;;;0.10;0.10;;;;;;;;;;5056321;28;20071;-63
2022/01/23 07:25:10;;;;;;;0.10;0.10;;;;;;;;;;5074188;28;20040;-60
2022/01/23 07:27:47;;;;;;;0.73;0.73;;;;;;;;;;5073997;28;20081;-60
2022/01/23 07:30:26;;;;;;;2.58;2.42;;;;;;;;;;5062141;28;20043;-61
2022/01/23 07:32:52;;;;;;;0.15;0.15;;;;;;;;;;5059910;28;20063;-61
2022/01/23 07:35:17;;;;;;;0.20;0.20;;;;;;;;;;5074364;28;20033;-62
2022/01/23 07:37:43;;;;;;;2.75;2.63;;;;;;;;;;5055791;28;20040;-61
2022/01/23 07:40:27;;;;;;;0.20;0.20;;;;;;;;;;5059153;28;20115;-60
2022/01/23 07:42:54;;;;;;;0.63;0.63;;;;;;;;;;5058344;28;20395;-60
2022/01/23 07:45:39;;;;;;;0.20;0.20;;;;;;;;;;5083005;28;20404;-60
2022/01/23 07:48:30;;;;;;;0.20;0.20;;;;;;;;;;5055735;28;20045;-61
2022/01/23 07:51:09;;;;;;;0.20;0.20;;;;;;;;;;5046477;28;20476;-60
2022/01/23 07:53:52;;;;;;;0.20;0.20;;;;;;;;;;5074998;28;20032;-60
2022/01/23 07:56:38;;;;;;;0.15;0.15;;;;;;;;;;5075819;28;20081;-59
2022/01/23 07:59:41;;;;;;;1.25;1.17;;;;;;;;;;5066626;28;20081;-60
2022/01/23 08:02:33;;;;;;;0.20;0.20;;;;;;;;;;5061222;28;20046;-62
2022/01/23 08:05:17;;;;;;;0.57;0.57;;;;;;;;;;5078735;28;20047;-61
2022/01/23 08:08:05;;;;;;;0.20;0.20;;;;;;;;;;5093558;28;20062;-61
2022/01/23 08:10:47;;;;;;;0.57;0.57;;;;;;;;;;5075879;28;20501;-60
2022/01/23 08:13:15;;;;;;;0.17;0.17;;;;;;;;;;5075728;28;20071;-61
2022/01/23 08:15:40;;;;;;;0.20;0.20;;;;;;;;;;5075336;28;20028;-60
2022/01/23 08:18:06;;;;;;;1.55;1.55;;;;;;;;;;5092920;28;20043;-60
2022/01/23 08:20:33;;;;;;;0.30;0.30;;;;;;;;;;5084441;28;20028;-61
2022/01/23 08:23:01;;;;;;;0.20;0.20;;;;;;;;;;5055396;28;20028;-61
2022/01/23 08:25:27;;;;;;;0.30;0.30;;;;;;;;;;5073325;28;20058;-61
2022/01/23 08:27:52;;;;;;;0.30;0.30;;;;;;;;;;5073539;28;20484;-61
2022/01/23 08:30:18;;;;;;;0.20;0.20;;;;;;;;;;5073132;28;20048;-61
2022/01/23 08:32:43;;;;;;;0.20;0.20;;;;;;;;;;5074304;28;20430;-61
2022/01/23 08:35:09;;;;;;;1.30;0.90;;;;;;;;;;5068081;28;20032;-61
2022/01/23 08:37:35;;;;;;;0.20;0.20;;;;;;;;;;5064402;28;20041;-61
2022/01/23 08:40:00;;;;;;;0.25;0.25;;;;;;;;;;5081190;28;20032;-61
2022/01/23 08:42:26;;;;;;;1.13;1.13;;;;;;;;;;5079138;28;20037;-61
2022/01/23 08:44:52;;;;;;;0.30;0.30;;;;;;;;;;5079023;28;20085;-62
2022/01/23 08:47:18;;;;;;;0.20;0.20;;;;;;;;;;5089356;28;20043;-61
2022/01/23 08:49:46;;;;;;;0.73;0.73;;;;;;;;;;5085068;28;20051;-61
2022/01/23 08:52:14;;;;;;;0.20;0.20;;;;;;;;;;5076355;28;20028;-61
2022/01/23 08:54:39;;;;;;;0.20;0.20;;;;;;;;;;5064416;28;20047;-62
2022/01/23 08:57:12;;;;;;;0.20;0.20;;;;;;;;;;5064241;28;20040;-63
2022/01/23 08:59:37;;;;;;;0.30;0.30;;;;;;;;;;5074694;28;20161;-63
2022/01/23 09:02:03;;;;;;;0.30;0.30;;;;;;;;;;5082289;28;20112;-63
2022/01/23 09:04:28;;;;;;;0.35;0.35;;;;;;;;;;5054482;28;20025;-63
2022/01/23 09:06:55;;;;;;;0.20;0.20;;;;;;;;;;5090722;28;20329;-63
2022/01/23 09:09:23;;;;;;;3.33;2.67;;;;;;;;;;5090766;28;20036;-63
2022/01/23 09:11:57;;;;;;;0.30;0.30;;;;;;;;;;5090639;28;20047;-63
2022/01/23 09:14:23;;;;;;;0.40;0.40;;;;;;;;;;5080005;28;20510;-64
2022/01/23 09:16:49;;;;;;;0.30;0.30;;;;;;;;;;5078651;28;20108;-64
2022/01/23 09:19:17;;;;;;;0.28;0.28;;;;;;;;;;5070401;28;20116;-62
2022/01/23 09:21:44;;;;;;;0.30;0.30;;;;;;;;;;5070306;28;20516;-63
2022/01/23 09:24:09;;;;;;;0.25;0.25;;;;;;;;;;5075559;28;20032;-63
2022/01/23 09:26:36;;;;;;;0.20;0.20;;;;;;;;;;5078677;28;20383;-63
2022/01/23 09:29:11;;;;;;;0.20;0.20;;;;;;;;;;5064589;28;20027;-64
2022/01/23 09:31:48;;;;;;;0.20;0.20;;;;;;;;;;5070644;28;20086;-62
2022/01/23 09:34:21;;;;;;;0.20;0.20;;;;;;;;;;5070591;28;20119;-62
2022/01/23 09:36:47;;;;;;;0.30;0.30;;;;;;;;;;5071232;28;20041;-62
2022/01/23 09:39:15;;;;;;;0.30;0.30;;;;;;;;;;5071450;28;20031;-63
2022/01/23 09:41:49;;;;;;;1.05;1.05;;;;;;;;;;5071480;28;20510;-62
2022/01/23 09:44:18;;;;;;;0.38;0.38;;;;;;;;;;5058923;28;20036;-65
2022/01/23 09:46:45;;;;;;;0.30;0.30;;;;;;;;;;5078159;28;20111;-65
2022/01/23 09:49:12;;;;;;;0.20;0.20;;;;;;;;;;5078897;28;20029;-64
2022/01/23 09:51:40;;;;;;;0.73;0.73;;;;;;;;;;5077908;28;20503;-64
2022/01/23 09:54:07;;;;;;;0.20;0.20;;;;;;;;;;5078335;28;20043;-64
2022/01/23 09:56:34;;;;;;;0.20;0.20;;;;;;;;;;5080198;28;20028;-61
2022/01/23 09:59:00;;;;;;;0.30;0.30;;;;;;;;;;5079363;28;20488;-61
2022/01/23 10:01:27;;;;;;;0.30;0.30;;;;;;;;;;5078873;28;20093;-62
2022/01/23 10:03:52;;;;;;;0.20;0.20;;;;;;;;;;5063334;28;20040;-64
2022/01/23 10:06:18;;;;;;;0.20;0.20;;;;;;;;;;5081413;28;20020;-62
2022/01/23 10:08:44;;;;;;;0.20;0.20;;;;;;;;;;5082849;28;20557;-63
2022/01/23 10:11:12;;;;;;;0.30;0.30;;;;;;;;;;5085036;28;20095;-62
2022/01/23 10:13:39;;;;;;;0.30;0.30;;;;;;;;;;5078130;28;20033;-62
2022/01/23 10:16:04;;;;;;;0.35;0.35;;;;;;;;;;5075337;28;20070;-61
2022/01/23 10:18:31;;;;;;;0.20;0.20;;;;;;;;;;5075342;28;20029;-63
2022/01/23 10:20:57;;;;;;;0.35;0.35;;;;;;;;;;5057200;28;20507;-62
2022/01/23 10:23:23;;;;;;;0.30;0.30;;;;;;;;;;5075071;28;20036;-61
2022/01/23 10:25:51;;;;;;;0.20;0.20;;;;;;;;;;5058599;28;20065;-64
2022/01/23 10:28:19;;;;;;;0.20;0.20;;;;;;;;;;5095568;28;20038;-65
2022/01/23 10:30:47;;;;;;;0.30;0.30;;;;;;;;;;5095499;28;20036;-62
2022/01/23 10:33:12;;;;;;;0.20;0.20;;;;;;;;;;5077127;28;20052;-63
2022/01/23 10:35:56;;;;;;;1.10;0.65;;;;;;;;;;5095267;28;20109;-64
2022/01/23 10:38:23;;;;;;;0.30;0.30;;;;;;;;;;5084209;28;20040;-61
2022/01/23 10:41:01;;;;;;;0.30;0.30;;;;;;;;;;5057185;28;20468;-63
2022/01/23 10:48:56;;;;;;;0.30;0.30;;;;;;;;;;5056862;28;20047;-63
2022/01/23 10:51:25;;;;;;;0.20;0.20;;;;;;;;;;5078996;28;20111;-62
2022/01/23 10:53:59;;;;;;;0.25;0.25;;;;;;;;;;5089435;28;20403;-62
2022/01/23 10:56:26;;;;;;;0.70;0.70;;;;;;;;;;5072871;28;20032;-63
2022/01/23 10:58:58;;;;;;;1.42;1.38;;;;;;;;;;5090719;28;20020;-62
2022/01/23 11:01:24;;;;;;;0.30;0.30;;;;;;;;;;5090871;28;20119;-63
2022/01/23 11:04:03;;;;;;;0.32;0.32;;;;;;;;;;5091014;28;20127;-61
2022/01/23 11:06:28;;;;;;;0.20;0.20;;;;;;;;;;5090829;28;20031;-61
2022/01/23 11:09:05;;;;;;;0.20;0.20;;;;;;;;;;5092348;28;20094;-63
2022/01/23 11:11:44;;;;;;;0.20;0.20;;;;;;;;;;5072901;28;20039;-63
2022/01/23 11:19:46;;;;;;;0.20;0.20;;;;;;;;;;5089840;28;20044;-62
2022/01/23 11:22:19;;;;;;;0.20;0.20;;;;;;;;;;5090992;28;20493;-64
2022/01/23 11:24:47;;;;;;;0.73;0.73;;;;;;;;;;5091019;28;20632;-64
2022/01/23 11:27:13;;;;;;;1.08;1.08;;;;;;;;;;5074379;28;20024;-64
2022/01/23 11:29:58;;;;;;;0.40;0.40;;;;;;;;;;5093725;28;20392;-62
2022/01/23 11:32:26;;;;;;;0.28;0.28;;;;;;;;;;5076249;28;20032;-64
2022/01/23 11:34:57;;;;;;;0.20;0.20;;;;;;;;;;5094379;28;20040;-62
2022/01/23 11:37:23;;;;;;;0.20;0.20;;;;;;;;;;5094816;28;20110;-64
2022/01/23 11:39:54;;;;;;;0.20;0.20;;;;;;;;;;5094254;28;20493;-63
2022/01/23 11:56:24;;;;;;;0.20;0.20;;;;;;;;;;5076097;28;20140;-62
2022/01/23 11:58:51;;;;;;;0.20;0.20;;;;;;;;;;5093874;28;20035;-62
2022/01/23 12:01:17;;;;;;;0.20;0.20;;;;;;;;;;5093878;28;20024;-64
2022/01/23 12:04:01;;;;;;;0.20;0.20;;;;;;;;;;5093805;28;20429;-62
2022/01/23 12:06:26;;;;;;;0.30;0.30;;;;;;;;;;5075784;28;20032;-61
2022/01/23 12:08:51;;;;;;;0.20;0.20;;;;;;;;;;5093842;28;20080;-61
2022/01/23 12:16:33;;;;;;;0.20;0.20;;;;;;;;;;5093609;28;20598;-61
2022/01/23 12:19:20;;;;;;;0.52;0.52;;;;;;;;;;5075816;28;20065;-62
2022/01/23 12:21:46;;;;;;;0.35;0.35;;;;;;;;;;5094176;28;20130;-62
2022/01/23 12:24:14;;;;;;;0.30;0.30;;;;;;;;;;5093646;28;20511;-63
2022/01/23 12:26:44;;;;;;;0.20;0.20;;;;;;;;;;5093460;28;20544;-63
2022/01/23 12:29:18;;;;;;;1.98;1.20;;;;;;;;;;5093022;28;20039;-61
2022/01/23 12:31:44;;;;;;;0.22;0.22;;;;;;;;;;5093753;28;20038;-62
2022/01/23 12:34:10;;;;;;;0.30;0.30;;;;;;;;;;5093391;28;20032;-62
2022/01/23 12:36:37;;;;;;;0.30;0.30;;;;;;;;;;5093521;28;20471;-62
2022/01/23 12:39:06;;;;;;;0.20;0.20;;;;;;;;;;5093302;28;20077;-63
2022/01/23 12:41:32;;;;;;;0.47;0.47;;;;;;;;;;5093536;28;20024;-62
2022/01/23 12:44:03;;;;;;;0.30;0.30;;;;;;;;;;5093376;28;20054;-62
2022/01/23 12:46:35;;;;;;;0.20;0.20;;;;;;;;;;5093412;28;20429;-62
2022/01/23 12:49:16;;;;;;;0.30;0.30;;;;;;;;;;5093518;28;20391;-62
2022/01/23 12:51:42;;;;;;;0.20;0.20;;;;;;;;;;5075119;28;20035;-62
2022/01/23 12:54:09;;;;;;;0.20;0.20;;;;;;;;;;5075035;28;20047;-65
2022/01/23 12:56:41;;;;;;;0.20;0.20;;;;;;;;;;5093083;28;20487;-63
2022/01/23 12:59:12;;;;;;;0.20;0.20;;;;;;;;;;5092799;28;20032;-63
2022/01/23 13:01:41;;;;;;;0.20;0.20;;;;;;;;;;5091964;28;20578;-63
2022/01/23 13:04:08;;;;;;;0.40;0.40;;;;;;;;;;5072798;28;20107;-63
2022/01/23 13:06:33;;;;;;;0.20;0.20;;;;;;;;;;5090993;28;20031;-63
2022/01/23 13:09:47;;;;;;;0.65;0.65;;;;;;;;;;5090803;28;20090;-63
2022/01/23 13:12:10;;;;;;;0.20;0.20;;;;;;;;;;5089815;28;20040;-63
2022/01/23 13:14:42;;;;;;;0.30;0.30;;;;;;;;;;5090571;28;20040;-64
2022/01/23 13:17:30;;;;;;;0.30;0.30;;;;;;;;;;5091245;28;20034;-63
2022/01/23 13:26:25;;;;;;;0.30;0.30;;;;;;;;;;5093054;28;20392;-62
2022/01/23 13:30:55;;;;;;;0.20;0.20;;;;;;;;;;5092655;28;20101;-63
2022/01/23 13:33:22;;;;;;;1.55;0.80;;;;;;;;;;5092619;28;20190;-63
2022/01/23 13:35:52;;;;;;;0.20;0.20;;;;;;;;;;5092422;28;20048;-63
2022/01/23 13:38:19;;;;;;;0.20;0.20;;;;;;;;;;5092609;28;20047;-63
2022/01/23 13:40:45;;;;;;;0.20;0.20;;;;;;;;;;5091683;28;20392;-63
2022/01/23 14:04:34;;;;;;;0.30;0.30;;;;;;;;;;5080684;28;20032;-63
2022/01/23 14:07:00;;;;;;;0.40;0.40;;;;;;;;;;5092084;28;20107;-63
2022/01/23 14:09:26;;;;;;;0.30;0.30;;;;;;;;;;5073957;28;20107;-63
2022/01/23 14:11:52;;;;;;;0.20;0.20;;;;;;;;;;5092114;28;20033;-63
2022/01/23 14:14:22;;;;;;;0.28;0.28;;;;;;;;;;5091996;28;20047;-63
2022/01/23 14:16:49;;;;;;;0.40;0.40;;;;;;;;;;5092035;28;20034;-63
2022/01/23 14:19:18;;;;;;;0.20;0.20;;;;;;;;;;5091925;28;20040;-63
2022/01/23 14:21:46;;;;;;;1.27;0.80;;;;;;;;;;5092119;28;20473;-63
2022/01/23 14:24:11;;;;;;;0.30;0.30;;;;;;;;;;5092428;28;20476;-60
2022/01/23 14:26:37;;;;;;;0.65;0.63;;;;;;;;;;5091858;28;20085;-62
2022/01/23 14:29:06;;;;;;;0.82;0.82;;;;;;;;;;5091986;28;20020;-62
2022/01/23 14:31:39;;;;;;;;;;;;;;;;;;5092207;28;20040;-62
2022/01/23 14:34:23;;;;;;;1.10;1.00;;;;;;;;;;5090786;28;20007;-63
2022/01/23 14:36:55;;;;;;;0.38;0.30;;;;;;;;;;5082599;28;20033;-63
2022/01/23 14:39:22;;;;;;;0.55;0.55;;;;;;;;;;5080024;28;20043;-62
2022/01/23 14:41:47;;;;;;;0.20;0.20;;;;;;;;;;5059252;28;20036;-63
2022/01/23 14:44:18;;;;;;;0.20;0.20;;;;;;;;;;5071462;28;20036;-64
2022/01/23 14:46:47;;;;;;;0.65;0.47;;;;;;;;;;5053436;28;20396;-64
2022/01/23 14:49:21;;;;;;;;;;;;;;;;;;5071818;28;20033;-63
2022/01/23 14:51:46;;;;;;;0.30;0.30;;;;;;;;;;5071466;28;20011;-64
2022/01/23 14:54:12;;;;;;;0.30;0.30;;;;;;;;;;5074463;28;20174;-63
2022/01/23 14:56:39;;;;;;;0.20;0.20;;;;;;;;;;5057019;28;20060;-63
2022/01/23 14:59:08;;;;;;;1.48;0.98;;;;;;;;;;5074755;28;20431;-64
2022/01/23 15:01:33;;;;;;;1.30;1.10;;;;;;;;;;5074698;28;20036;-62
2022/01/23 15:04:05;;;;;;;0.20;0.20;;;;;;;;;;5056801;28;20024;-62
2022/01/23 15:06:31;;;;;;;0.20;0.20;;;;;;;;;;5074774;28;20572;-62
2022/01/23 15:09:10;;;;;;;5.35;1.30;;;;;;;;;;5074461;28;20052;-62
2022/01/23 15:11:36;;;;;;;0.28;0.28;;;;;;;;;;5056469;28;20094;-62
2022/01/23 15:14:02;;;;;;;0.80;0.60;;;;;;;;;;5056312;28;20037;-62
2022/01/23 15:16:28;;;;;;;0.20;0.20;;;;;;;;;;5074636;28;20025;-62
2022/01/23 15:18:53;;;;;;;0.30;0.30;;;;;;;;;;5074309;28;20549;-62
2022/01/23 15:21:19;;;;;;;4.28;1.30;;;;;;;;;;5074335;28;20037;-62
2022/01/23 15:23:46;;;;;;;2.90;1.55;;;;;;;;;;5073730;28;20043;-62
2022/01/23 15:26:11;;;;;;;0.45;0.35;;;;;;;;;;5073667;28;20111;-62
2022/01/23 15:28:37;;;;;;;0.82;0.82;;;;;;;;;;5047258;28;20024;-63
2022/01/23 15:31:03;;;;;;;0.85;0.55;;;;;;;;;;5077476;28;20418;-62
2022/01/23 15:33:29;;;;;;;1.25;0.77;;;;;;;;;;5074055;28;20031;-62
2022/01/23 15:35:55;;;;;;;0.95;0.77;;;;;;;;;;5074289;28;20115;-62
2022/01/23 15:38:21;;;;;;;0.73;0.57;;;;;;;;;;5055996;28;20043;-63
2022/01/23 15:40:49;;;;;;;1.60;1.08;;;;;;;;;;5056152;28;20040;-62
2022/01/23 15:43:15;;;;;;;0.47;0.47;;;;;;;;;;5055824;28;20031;-63
2022/01/23 15:45:42;;;;;;;0.30;0.30;;;;;;;;;;5074225;28;20037;-65
2022/01/23 15:48:08;;;;;;;0.47;0.43;;;;;;;;;;5039462;28;20071;-65
2022/01/23 15:50:33;;;;;;;0.43;0.43;;;;;;;;;;5073968;28;20045;-64
2022/01/23 15:52:59;;;;;;;0.38;0.38;;;;;;;;;;5073798;28;20042;-64
2022/01/23 15:55:28;;;;;;;11.07;0.55;;;;;;;;;;5073795;28;20063;-65
2022/01/23 15:57:53;;;;;;;0.52;0.52;;;;;;;;;;5073824;28;20046;-66
2022/01/23 16:00:19;;;;;;;1.58;0.82;;;;;;;;;;5039318;28;20028;-65
2022/01/23 16:02:45;;;;;;;1.17;0.85;;;;;;;;;;5073621;28;20475;-65
2022/01/23 16:05:11;;;;;;;0.20;0.20;;;;;;;;;;5075477;28;20111;-65
2022/01/23 16:07:36;;;;;;;1.38;1.08;;;;;;;;;;5085793;28;20028;-65
2022/01/23 16:10:02;;;;;;;0.45;0.45;;;;;;;;;;5055505;28;20036;-65
2022/01/23 16:12:28;;;;;;;6.72;1.27;;;;;;;;;;5056606;28;20024;-65
2022/01/23 16:14:53;;;;;;;0.10;0.10;;;;;;;;;;5075435;28;20028;-65
2022/01/23 16:17:19;;;;;;;0.90;0.73;;;;;;;;;;5093791;28;20039;-65
2022/01/23 16:19:44;;;;;;;2.33;0.50;;;;;;;;;;5093676;28;20028;-66
2022/01/23 16:22:10;;;;;;;0.20;0.20;;;;;;;;;;5093751;28;20300;-65
2022/01/23 16:24:35;;;;;;;0.68;0.60;;;;;;;;;;5075603;28;20476;-66
2022/01/23 16:27:01;;;;;;;0.30;0.30;;;;;;;;;;5093248;28;20036;-65
2022/01/23 16:29:26;;;;;;;0.20;0.20;;;;;;;;;;5058758;28;20031;-63
2022/01/23 16:31:54;;;;;;;1.17;1.15;;;;;;;;;;5093457;28;20067;-66
2022/01/23 16:34:19;;;;;;;1.10;0.90;;;;;;;;;;5058644;28;20024;-65
2022/01/23 16:36:45;;;;;;;1.30;1.20;;;;;;;;;;5075502;28;20097;-65
2022/01/23 16:39:12;;;;;;;1.30;0.95;;;;;;;;;;5075521;28;20036;-65
2022/01/23 16:41:37;;;;;;;0.52;0.52;;;;;;;;;;5093560;28;20036;-65
2022/01/23 16:44:03;;;;;;;0.80;0.80;;;;;;;;;;5058929;28;20028;-64
2022/01/23 16:46:29;;;;;;;1.27;0.52;;;;;;;;;;5058647;28;20073;-65
2022/01/23 16:48:55;;;;;;;0.45;0.43;;;;;;;;;;5093374;28;20036;-65
2022/01/23 16:51:20;;;;;;;1.42;1.33;;;;;;;;;;5093317;28;20044;-65
2022/01/23 16:53:46;;;;;;;0.47;0.40;;;;;;;;;;5058393;28;20031;-65
2022/01/23 16:56:12;;;;;;;0.20;0.20;;;;;;;;;;5093050;28;20388;-68
2022/01/23 16:58:38;;;;;;;1.75;1.15;;;;;;;;;;5074966;28;20092;-65
2022/01/23 17:01:04;;;;;;;1.10;1.00;;;;;;;;;;5093430;28;20455;-65
2022/01/23 17:03:29;;;;;;;3.20;2.45;;;;;;;;;;5072938;28;20031;-66
2022/01/23 17:05:55;;;;;;;0.85;0.57;;;;;;;;;;5083131;28;20032;-66
2022/01/23 17:08:20;;;;;;;1.67;1.45;;;;;;;;;;5072653;28;20476;-66
2022/01/23 17:10:46;;;;;;;2.72;1.73;;;;;;;;;;5072693;28;20395;-66
2022/01/23 17:13:12;;;;;;;10.32;2.92;;;;;;;;;;5038048;28;20028;-65
2022/01/23 17:15:38;;;;;;;6.88;2.70;;;;;;;;;;5086882;28;20039;-65
2022/01/23 17:18:04;;;;;;;1.17;0.98;;;;;;;;;;5057785;28;20395;-65
2022/01/23 17:20:30;;;;;;;2.33;1.27;;;;;;;;;;5074793;28;20032;-65
2022/01/23 17:22:56;;;;;;;0.98;0.93;;;;;;;;;;5092712;28;20085;-65
2022/01/23 17:25:21;;;;;;;0.30;0.30;;;;;;;;;;5092778;28;20019;-65
2022/01/23 17:27:48;;;;;;;25.13;3.47;;;;;;;;;;5092624;28;20110;-65
2022/01/23 17:30:14;;;;;;;0.40;0.40;;;;;;;;;;5058139;28;20039;-67
2022/01/23 17:32:40;;;;;;;7.13;1.48;;;;;;;;;;5092713;28;20016;-65
2022/01/23 17:35:05;;;;;;;0.20;0.20;;;;;;;;;;5092601;28;20046;-66
2022/01/23 17:37:31;;;;;;;2.83;2.42;;;;;;;;;;5092561;28;20031;-65
2022/01/23 17:39:56;;;;;;;2.20;2.03;;;;;;;;;;5092478;28;20024;-65
2022/01/23 17:42:22;;;;;;;2.63;2.45;;;;;;;;;;5092316;28;20494;-65
2022/01/23 17:44:49;;;;;;;2.75;1.95;;;;;;;;;;5074718;28;20032;-65
2022/01/23 17:49:58;;;;;;;1.58;1.33;;;;;;;;;;5074574;28;20048;-66
2022/01/23 17:52:24;;;;;;;2.17;1.98;;;;;;;;;;5057674;28;20115;-65
2022/01/23 17:54:50;;;;;;;0.20;0.20;;;;;;;;;;5073963;28;20040;-66
2022/01/23 17:57:16;;;;;;;2.05;1.88;;;;;;;;;;5057665;28;20035;-65
2022/01/23 17:59:41;;;;;;;2.80;2.60;;;;;;;;;;5092328;28;20060;-65
2022/01/23 18:02:08;;;;;;;2.58;2.33;;;;;;;;;;5092211;28;20388;-65
2022/01/23 18:04:33;;;;;;;0.10;0.10;;;;;;;;;;5091994;28;20028;-65
2022/01/23 18:07:06;;;;;;;5.13;4.72;;;;;;;;;;5092075;28;20028;-68
2022/01/23 18:09:31;;;;;;;1.45;1.35;;;;;;;;;;5057268;28;20036;-66
2022/01/23 18:11:58;;;;;;;0.55;0.55;;;;;;;;;;5057394;28;20089;-66
2022/01/23 18:14:24;;;;;;;0.50;0.50;;;;;;;;;;5092149;28;20055;-65
2022/01/23 18:16:49;;;;;;;0.30;0.30;;;;;;;;;;5092160;28;20463;-65
2022/01/23 18:19:14;;;;;;;0.10;0.10;;;;;;;;;;5092101;28;20031;-65
2022/01/23 18:21:40;;;;;;;0.10;0.10;;;;;;;;;;5092159;28;20035;-65
2022/01/23 18:24:08;;;;;;;0.47;0.47;;;;;;;;;;5091815;28;20024;-67
2022/01/23 18:26:40;;;;;;;0.20;0.20;;;;;;;;;;5057073;28;20575;-65
2022/01/23 18:29:06;;;;;;;0.40;0.40;;;;;;;;;;5060267;28;20434;-66
2022/01/23 18:31:32;;;;;;;0.20;0.20;;;;;;;;;;5060573;28;20399;-65
2022/01/23 18:33:58;;;;;;;0.10;0.10;;;;;;;;;;5095262;28;20020;-65
2022/01/23 18:36:24;;;;;;;0.10;0.10;;;;;;;;;;5077307;28;20036;-66
2022/01/23 18:38:49;;;;;;;0.63;0.63;;;;;;;;;;5095221;28;20520;-66
2022/01/23 18:41:15;;;;;;;1.10;1.10;;;;;;;;;;5077150;28;20384;-65